createdAt,value
2022-08-24T00:02:05.759Z,2.45
2022-08-24T00:04:32.846Z,2.13
2022-08-24T00:07:00.895Z,2.30
2022-08-24T00:09:28.160Z,2.50
2022-08-24T00:11:54.697Z,2.10
2022-08-24T00:14:21.210Z,2.25
2022-08-24T00:16:47.836Z,2.00
2022-08-24T00:19:14.957Z,2.20
2022-08-24T00:21:41.497Z,2.55
2022-08-24T00:24:08.168Z,2.22
2022-08-24T00:26:35.456Z,2.55
2022-08-24T00:29:05.509Z,2.28
2022-08-24T00:31:34.108Z,2.10
2022-08-24T00:34:00.794Z,2.38
2022-08-24T00:36:27.311Z,2.47
2022-08-24T00:38:54.003Z,2.53
2022-08-24T00:41:20.814Z,2.30
2022-08-24T00:43:55.756Z,2.30
2022-08-24T00:46:58.163Z,2.20
2022-08-24T00:49:54.639Z,2.30
2022-08-24T00:52:43.455Z,2.60
2022-08-24T00:55:20.059Z,2.33
2022-08-24T00:57:51.703Z,2.33
2022-08-24T01:00:22.769Z,2.38
2022-08-24T01:02:59.468Z,2.70
2022-08-24T01:05:26.042Z,2.50
2022-08-24T01:07:52.612Z,2.30
2022-08-24T01:10:25.160Z,2.35
2022-08-24T01:13:01.140Z,2.42
2022-08-24T01:15:35.232Z,1.95
2022-08-24T01:18:21.021Z,2.45
2022-08-24T01:20:56.715Z,2.30
2022-08-24T01:23:40.286Z,2.00
2022-08-24T01:26:10.281Z,2.37
2022-08-24T01:28:41.127Z,2.38
2022-08-24T01:31:08.260Z,2.20
2022-08-24T01:33:35.038Z,2.33
2022-08-24T01:36:14.889Z,2.05
2022-08-24T01:38:42.302Z,2.35
2022-08-24T01:41:08.777Z,2.42
2022-08-24T01:43:38.883Z,2.50
2022-08-24T01:46:07.964Z,2.53
2022-08-24T01:48:35.549Z,2.50
2022-08-24T01:51:02.053Z,2.33
2022-08-24T01:53:28.619Z,2.40
2022-08-24T01:55:55.675Z,2.80
2022-08-24T01:58:22.202Z,2.08
2022-08-24T02:00:48.873Z,2.38
2022-08-24T02:03:15.883Z,2.60
2022-08-24T02:05:48.568Z,2.65
2022-08-24T02:08:15.554Z,2.30
2022-08-24T02:10:42.319Z,2.58
2022-08-24T02:13:17.460Z,2.63
2022-08-24T02:15:44.000Z,2.38
2022-08-24T02:18:14.796Z,2.85
2022-08-24T02:20:42.606Z,2.92
2022-08-24T02:23:09.039Z,1.95
2022-08-24T02:25:35.643Z,2.22
2022-08-24T02:28:02.714Z,2.25
2022-08-24T02:30:30.147Z,2.40
2022-08-24T02:32:59.046Z,2.42
2022-08-24T02:35:26.935Z,2.28
2022-08-24T02:37:53.434Z,2.50
2022-08-24T02:40:20.175Z,2.40
2022-08-24T02:42:46.711Z,2.63
2022-08-24T02:45:13.257Z,2.30
2022-08-24T02:47:39.987Z,2.00
2022-08-24T02:50:10.313Z,2.40
2022-08-24T02:52:39.382Z,2.45
2022-08-24T02:55:10.457Z,2.40
2022-08-24T02:57:38.756Z,2.30
2022-08-24T03:00:10.759Z,2.28
2022-08-24T03:02:40.659Z,2.70
2022-08-24T03:05:08.527Z,2.45
2022-08-24T03:07:35.257Z,2.58
2022-08-24T03:10:02.129Z,2.55
2022-08-24T03:12:29.040Z,2.38
2022-08-24T03:14:55.554Z,2.53
2022-08-24T03:17:23.898Z,2.40
2022-08-24T03:19:50.639Z,2.60
2022-08-24T03:22:17.413Z,2.75
2022-08-24T03:24:46.385Z,2.28
2022-08-24T03:27:14.035Z,2.70
2022-08-24T03:29:41.236Z,2.70
2022-08-24T03:32:08.146Z,2.55
2022-08-24T03:34:35.363Z,3.10
2022-08-24T03:37:02.555Z,2.65
2022-08-24T03:39:29.374Z,2.92
2022-08-24T03:41:56.741Z,3.03
2022-08-24T03:44:26.029Z,2.60
2022-08-24T03:46:54.168Z,2.67
2022-08-24T03:49:23.075Z,2.95
2022-08-24T03:51:50.362Z,2.80
2022-08-24T03:54:21.041Z,2.85
2022-08-24T03:56:47.560Z,2.40
2022-08-24T03:59:17.706Z,2.85
2022-08-24T04:01:48.090Z,2.38
2022-08-24T04:04:15.042Z,2.65
2022-08-24T04:06:46.655Z,2.63
2022-08-24T04:09:13.573Z,2.78
2022-08-24T04:11:45.469Z,2.63
2022-08-24T04:14:26.533Z,2.63
2022-08-24T04:17:00.568Z,2.28
2022-08-24T04:19:34.024Z,2.60
2022-08-24T04:22:00.646Z,2.70
2022-08-24T04:24:29.000Z,2.72
2022-08-24T04:26:55.988Z,2.72
2022-08-24T04:29:25.514Z,2.60
2022-08-24T04:31:53.383Z,2.78
2022-08-24T04:34:21.076Z,3.05
2022-08-24T04:36:47.570Z,2.92
2022-08-24T04:39:15.525Z,2.95
2022-08-24T04:41:44.825Z,3.05
2022-08-24T04:44:14.467Z,2.80
2022-08-24T04:46:41.022Z,3.13
2022-08-24T04:49:09.015Z,2.85
2022-08-24T04:51:36.314Z,2.78
2022-08-24T04:54:05.068Z,3.40
2022-08-24T04:56:31.560Z,2.60
2022-08-24T04:58:58.194Z,2.65
2022-08-24T05:01:28.219Z,3.17
2022-08-24T05:03:56.536Z,2.88
2022-08-24T05:06:26.867Z,2.65
2022-08-24T05:08:53.798Z,3.13
2022-08-24T05:11:24.542Z,2.45
2022-08-24T05:13:55.953Z,3.13
2022-08-24T05:16:24.432Z,2.83
2022-08-24T05:18:51.977Z,2.88
2022-08-24T05:21:21.792Z,3.03
2022-08-24T05:23:49.525Z,2.60
2022-08-24T05:26:24.764Z,3.25
2022-08-24T05:28:59.938Z,2.70
2022-08-24T05:31:32.490Z,2.92
2022-08-24T05:34:04.704Z,3.15
2022-08-24T05:36:40.816Z,2.95
2022-08-24T05:39:13.395Z,2.70
2022-08-24T05:41:44.667Z,2.80
2022-08-24T05:44:22.513Z,2.92
2022-08-24T05:46:49.162Z,2.47
2022-08-24T05:49:16.155Z,2.92
2022-08-24T05:51:42.758Z,2.90
2022-08-24T05:54:13.590Z,2.60
2022-08-24T05:59:49.624Z,3.00
2022-08-24T06:02:18.232Z,3.33
2022-08-24T06:04:46.208Z,2.70
2022-08-24T06:07:14.402Z,2.80
2022-08-24T06:09:45.409Z,2.60
2022-08-24T06:12:12.541Z,2.95
2022-08-24T06:14:40.977Z,3.08
2022-08-24T06:17:09.082Z,3.00
2022-08-24T06:19:36.852Z,2.72
2022-08-24T06:22:03.405Z,2.90
2022-08-24T06:24:55.190Z,2.60
2022-08-24T06:27:22.450Z,3.10
2022-08-24T06:29:54.030Z,2.78
2022-08-24T06:32:46.666Z,3.08
2022-08-24T06:35:23.415Z,3.05
2022-08-24T06:37:50.001Z,3.17
2022-08-24T06:40:16.805Z,3.20
2022-08-24T06:42:43.686Z,3.30
2022-08-24T06:45:22.148Z,3.63
2022-08-24T06:47:49.688Z,3.00
2022-08-24T06:50:19.810Z,2.90
2022-08-24T06:52:51.155Z,3.05
2022-08-24T06:55:17.726Z,3.00
2022-08-24T06:57:47.051Z,3.03
2022-08-24T07:00:17.240Z,3.60
2022-08-24T07:02:44.556Z,3.20
2022-08-24T07:05:11.073Z,3.30
2022-08-24T07:07:55.946Z,2.88
2022-08-24T07:10:24.262Z,3.10
2022-08-24T07:12:54.641Z,3.20
2022-08-24T07:15:22.108Z,3.38
2022-08-24T07:18:02.363Z,3.42
2022-08-24T07:20:31.934Z,3.70
2022-08-24T07:23:07.469Z,3.42
2022-08-24T07:25:34.657Z,3.58
2022-08-24T07:28:05.651Z,3.63
2022-08-24T07:30:35.252Z,3.35
2022-08-24T07:33:03.064Z,3.85
2022-08-24T07:35:32.410Z,3.65
2022-08-24T07:38:00.486Z,3.45
2022-08-24T07:40:29.921Z,3.70
2022-08-24T07:42:58.245Z,3.53
2022-08-24T07:45:26.751Z,3.80
2022-08-24T07:47:55.829Z,3.70
2022-08-24T07:50:39.055Z,3.53
2022-08-24T07:53:08.669Z,3.67
2022-08-24T07:55:36.574Z,4.15
2022-08-24T07:58:12.576Z,3.67
2022-08-24T08:00:39.786Z,3.63
2022-08-24T08:03:06.578Z,4.03
2022-08-24T08:05:39.587Z,4.00
2022-08-24T08:08:06.742Z,3.97
2022-08-24T08:10:38.344Z,3.90
2022-08-24T08:13:07.033Z,4.20
2022-08-24T08:15:34.278Z,4.28
2022-08-24T08:18:05.629Z,4.13
2022-08-24T08:20:36.638Z,4.22
2022-08-24T08:23:22.698Z,4.22
2022-08-24T08:26:06.438Z,4.03
2022-08-24T08:28:44.943Z,4.20
2022-08-24T08:31:11.624Z,4.28
2022-08-24T08:33:39.458Z,3.90
2022-08-24T08:36:12.605Z,4.28
2022-08-24T08:38:45.004Z,4.32
2022-08-24T08:41:17.731Z,3.90
2022-08-24T08:44:07.499Z,4.32
2022-08-24T08:46:53.425Z,4.57
2022-08-24T08:50:03.833Z,4.05
2022-08-24T08:53:07.939Z,4.05
2022-08-24T08:55:59.531Z,4.10
2022-08-24T08:58:46.684Z,4.80
2022-08-24T09:01:46.838Z,4.22
2022-08-24T09:04:47.741Z,4.45
2022-08-24T09:07:46.704Z,4.13
2022-08-24T09:10:27.360Z,4.15
2022-08-24T09:13:15.821Z,4.05
2022-08-24T09:16:21.117Z,3.97
2022-08-24T09:18:53.164Z,4.10
2022-08-24T09:21:39.252Z,4.18
2022-08-24T09:24:54.530Z,4.07
2022-08-24T09:27:46.723Z,4.13
2022-08-24T09:30:24.396Z,4.15
2022-08-24T09:33:20.060Z,3.97
2022-08-24T09:36:09.716Z,4.00
2022-08-24T09:39:14.684Z,3.60
2022-08-24T09:42:02.998Z,3.90
2022-08-24T09:44:48.053Z,3.90
2022-08-24T09:47:37.381Z,3.95
2022-08-24T09:50:25.867Z,3.55
2022-08-24T09:53:16.146Z,3.65
2022-08-24T09:56:01.589Z,3.58
2022-08-24T09:59:00.360Z,3.47
2022-08-24T10:01:39.887Z,3.40
2022-08-24T10:04:16.103Z,3.33
2022-08-24T10:07:07.351Z,3.70
2022-08-24T10:09:40.073Z,3.70
2022-08-24T10:12:25.042Z,3.67
2022-08-24T10:15:05.470Z,3.55
2022-08-24T10:18:04.035Z,3.72
2022-08-24T10:20:54.062Z,3.50
2022-08-24T10:23:43.404Z,3.28
2022-08-24T10:26:36.671Z,3.70
2022-08-24T10:29:28.218Z,3.85
2022-08-24T10:32:14.486Z,3.30
2022-08-24T10:35:03.310Z,3.33
2022-08-24T10:38:18.817Z,3.80
2022-08-24T10:41:03.573Z,3.60
2022-08-24T10:43:52.522Z,3.35
2022-08-24T10:46:40.245Z,4.10
2022-08-24T10:49:34.745Z,3.58
2022-08-24T10:52:30.245Z,3.40
2022-08-24T10:54:56.944Z,3.55
2022-08-24T10:57:37.843Z,3.20
2022-08-24T11:00:22.676Z,3.05
2022-08-24T11:03:05.030Z,3.33
2022-08-24T11:05:39.640Z,3.28
2022-08-24T11:08:07.242Z,3.65
2022-08-24T11:10:39.439Z,3.45
2022-08-24T11:13:18.412Z,3.10
2022-08-24T11:16:05.865Z,3.15
2022-08-24T11:18:50.701Z,3.22
2022-08-24T11:21:38.904Z,3.15
2022-08-24T11:24:19.418Z,3.30
2022-08-24T11:27:01.335Z,3.08
2022-08-24T11:29:48.349Z,3.10
2022-08-24T11:32:36.565Z,3.13
2022-08-24T11:35:28.119Z,3.00
2022-08-24T11:38:03.298Z,3.22
2022-08-24T11:40:36.321Z,3.15
2022-08-24T11:43:24.382Z,3.58
2022-08-24T11:46:08.093Z,3.28
2022-08-24T11:49:02.234Z,2.85
2022-08-24T11:51:57.846Z,3.33
2022-08-24T11:54:38.359Z,3.70
2022-08-24T11:57:30.028Z,3.60
2022-08-24T12:00:13.414Z,3.30
2022-08-24T12:02:52.543Z,3.35
2022-08-24T12:05:39.959Z,2.97
2022-08-24T12:08:33.030Z,3.42
2022-08-24T12:11:04.095Z,3.35
2022-08-24T12:13:48.022Z,3.30
2022-08-24T12:16:38.172Z,3.78
2022-08-24T12:19:26.185Z,3.30
2022-08-24T12:21:57.728Z,3.40
2022-08-24T12:24:44.297Z,3.63
2022-08-24T12:27:22.148Z,3.50
2022-08-24T12:30:13.368Z,3.38
2022-08-24T12:32:48.979Z,3.50
2022-08-24T12:35:30.941Z,3.25
2022-08-24T12:38:08.276Z,3.50
2022-08-24T12:40:43.918Z,3.65
2022-08-24T12:43:43.692Z,3.40
2022-08-24T12:46:12.878Z,3.38
2022-08-24T12:48:55.117Z,3.30
2022-08-24T12:51:38.701Z,3.75
2022-08-24T12:54:33.185Z,4.07
2022-08-24T12:59:47.395Z,3.50
2022-08-24T13:02:16.693Z,3.45
2022-08-24T13:04:49.182Z,3.55
2022-08-24T13:07:18.641Z,3.22
2022-08-24T13:09:56.167Z,3.85
2022-08-24T13:12:38.680Z,3.80
2022-08-24T13:15:28.129Z,3.30
2022-08-24T13:18:13.945Z,3.60
2022-08-24T13:20:43.287Z,3.80
2022-08-24T13:23:13.095Z,3.33
2022-08-24T13:25:51.534Z,3.47
2022-08-24T13:28:20.856Z,3.70
2022-08-24T13:30:53.070Z,3.78
2022-08-24T13:33:54.217Z,3.22
2022-08-24T13:36:49.765Z,3.10
2022-08-24T13:39:39.608Z,3.33
2022-08-24T13:42:38.625Z,3.25
2022-08-24T13:45:26.300Z,3.20
2022-08-24T13:47:59.347Z,3.60
2022-08-24T13:50:59.680Z,3.63
2022-08-24T13:53:48.757Z,3.13
2022-08-24T13:56:32.472Z,3.53
2022-08-24T13:59:38.465Z,3.15
2022-08-24T14:02:27.542Z,3.13
2022-08-24T14:05:24.841Z,3.25
2022-08-24T14:08:10.283Z,3.22
2022-08-24T14:10:44.378Z,3.33
2022-08-24T14:16:37.508Z,3.30
2022-08-24T14:19:24.834Z,3.35
2022-08-24T14:22:21.009Z,3.00
2022-08-24T14:25:14.566Z,3.15
2022-08-24T14:27:59.347Z,2.95
2022-08-24T14:30:25.748Z,2.88
2022-08-24T14:33:01.141Z,2.95
2022-08-24T14:35:46.788Z,2.88
2022-08-24T14:38:19.702Z,3.60
2022-08-24T14:41:14.181Z,3.35
2022-08-24T14:44:08.307Z,3.00
2022-08-24T14:46:51.864Z,2.78
2022-08-24T14:49:28.799Z,3.03
2022-08-24T14:52:05.959Z,2.70
2022-08-24T14:54:54.452Z,2.80
2022-08-24T14:57:24.011Z,2.60
2022-08-24T15:00:02.395Z,3.15
2022-08-24T15:02:48.793Z,2.63
2022-08-24T15:05:22.377Z,2.80
2022-08-24T15:08:08.901Z,2.90
2022-08-24T15:11:09.117Z,2.60
2022-08-24T15:13:47.957Z,2.97
2022-08-24T15:16:43.142Z,3.15
2022-08-24T15:19:27.460Z,2.75
2022-08-24T15:22:02.136Z,2.97
2022-08-24T15:24:41.233Z,3.60
2022-08-24T15:27:32.961Z,2.95
2022-08-24T15:30:03.705Z,3.03
2022-08-24T15:32:54.006Z,2.72
2022-08-24T15:35:28.284Z,2.55
2022-08-24T15:37:55.313Z,2.58
2022-08-24T15:40:29.375Z,3.10
2022-08-24T15:43:04.074Z,2.80
2022-08-24T15:45:32.312Z,3.00
2022-08-24T15:48:01.492Z,3.20
2022-08-24T15:50:33.315Z,2.92
2022-08-24T15:53:34.130Z,3.00
2022-08-24T15:56:35.782Z,2.92
2022-08-24T15:59:12.692Z,2.80
2022-08-24T16:01:58.492Z,3.17
2022-08-24T16:04:46.830Z,2.92
2022-08-24T16:07:15.884Z,3.10
2022-08-24T16:09:43.102Z,3.25
2022-08-24T16:12:21.926Z,2.53
2022-08-24T16:14:53.543Z,2.67
2022-08-24T16:17:34.532Z,2.95
2022-08-24T16:20:08.260Z,3.22
2022-08-24T16:22:39.286Z,3.10
2022-08-24T16:25:31.031Z,3.25
2022-08-24T16:28:18.489Z,3.38
2022-08-24T16:30:55.663Z,3.15
2022-08-24T16:33:31.290Z,3.15
2022-08-24T16:35:59.594Z,3.03
2022-08-24T16:38:28.054Z,3.47
2022-08-24T16:40:58.034Z,3.38
2022-08-24T16:43:25.135Z,2.90
2022-08-24T16:45:51.674Z,3.63
2022-08-24T16:48:18.277Z,3.70
2022-08-24T16:50:47.175Z,3.50
2022-08-24T16:53:17.157Z,3.42
2022-08-24T16:55:43.673Z,2.97
2022-08-24T16:58:10.244Z,3.20
2022-08-24T17:00:37.723Z,3.30
2022-08-24T17:03:04.237Z,3.45
2022-08-24T17:05:30.759Z,3.38
2022-08-24T17:07:59.137Z,3.25
2022-08-24T17:10:27.491Z,3.40
2022-08-24T17:12:54.337Z,3.30
2022-08-24T17:15:21.742Z,3.60
2022-08-24T17:17:56.525Z,3.30
2022-08-24T17:20:23.116Z,3.50
2022-08-24T17:22:49.654Z,3.40
2022-08-24T17:25:16.287Z,3.33
2022-08-24T17:27:44.561Z,3.00
2022-08-24T17:30:11.546Z,3.45
2022-08-24T17:32:37.993Z,3.55
2022-08-24T17:35:04.814Z,3.25
2022-08-24T17:37:31.313Z,3.50
2022-08-24T17:39:59.753Z,3.15
2022-08-24T17:42:49.547Z,3.08
2022-08-24T17:45:13.308Z,3.15
2022-08-24T17:47:42.982Z,3.78
2022-08-24T17:50:11.978Z,3.10
2022-08-24T17:52:39.563Z,2.92
2022-08-24T17:55:07.955Z,3.03
2022-08-24T17:57:34.431Z,3.33
2022-08-24T18:00:01.166Z,3.15
2022-08-24T18:02:27.704Z,2.92
2022-08-24T18:04:56.394Z,3.05
2022-08-24T18:07:42.386Z,3.20
2022-08-24T18:10:11.169Z,3.05
2022-08-24T18:12:38.073Z,3.40
2022-08-24T18:15:05.552Z,3.20
2022-08-24T18:17:38.597Z,3.15
2022-08-24T18:20:08.481Z,3.05
2022-08-24T18:22:35.013Z,3.20
2022-08-24T18:25:01.592Z,3.05
2022-08-24T18:27:30.995Z,3.03
2022-08-24T18:30:03.274Z,2.90
2022-08-24T18:32:31.154Z,2.95
2022-08-24T18:34:59.192Z,3.25
2022-08-24T18:37:25.790Z,3.20
2022-08-24T18:39:52.364Z,3.33
2022-08-24T18:42:19.061Z,3.30
2022-08-24T18:44:45.602Z,3.00
2022-08-24T18:47:12.110Z,3.25
2022-08-24T18:49:38.929Z,3.20
2022-08-24T18:52:09.121Z,2.83
2022-08-24T18:54:41.334Z,3.08
2022-08-24T18:57:08.937Z,3.20
2022-08-24T18:59:40.642Z,3.33
2022-08-24T19:02:35.355Z,3.63
2022-08-24T19:05:01.889Z,3.20
2022-08-24T19:07:32.037Z,3.58
2022-08-24T19:09:59.815Z,3.53
2022-08-24T19:12:28.488Z,3.00
2022-08-24T19:14:57.509Z,3.60
2022-08-24T19:17:24.285Z,3.70
2022-08-24T19:19:50.761Z,3.22
2022-08-24T19:22:17.583Z,3.40
2022-08-24T19:24:44.514Z,3.70
2022-08-24T19:27:11.033Z,3.55
2022-08-24T19:29:55.123Z,3.38
2022-08-24T19:32:25.678Z,3.25
2022-08-24T19:34:54.205Z,3.35
2022-08-24T19:37:21.359Z,3.30
2022-08-24T19:39:48.152Z,3.70
2022-08-24T19:42:17.806Z,3.60
2022-08-24T19:45:02.807Z,3.60
2022-08-24T19:47:34.174Z,3.75
2022-08-24T19:50:05.485Z,3.45
2022-08-24T19:52:32.763Z,3.33
2022-08-24T19:54:59.522Z,3.45
2022-08-24T19:57:47.213Z,3.72
2022-08-24T20:00:17.018Z,3.72
2022-08-24T20:02:51.177Z,3.83
2022-08-24T20:05:19.644Z,3.80
2022-08-24T20:07:47.719Z,4.15
2022-08-24T20:10:17.024Z,3.65
2022-08-24T20:12:43.548Z,3.55
2022-08-24T20:15:10.903Z,3.88
2022-08-24T20:17:38.384Z,3.58
2022-08-24T20:20:06.690Z,3.70
2022-08-24T20:22:33.234Z,3.63
2022-08-24T20:24:59.699Z,4.00
2022-08-24T20:27:27.790Z,3.72
2022-08-24T20:29:55.366Z,3.95
2022-08-24T20:32:22.028Z,4.43
2022-08-24T20:34:48.622Z,3.63
2022-08-24T20:37:25.414Z,3.67
2022-08-24T20:39:55.368Z,3.97
2022-08-24T20:42:27.156Z,3.63
2022-08-24T20:44:55.043Z,3.95
2022-08-24T20:47:22.772Z,3.60
2022-08-24T20:49:49.615Z,3.70
2022-08-24T20:52:16.212Z,4.00
2022-08-24T20:54:42.824Z,3.80
2022-08-24T20:57:13.954Z,4.30
2022-08-24T20:59:40.586Z,3.78
2022-08-24T21:02:07.322Z,3.67
2022-08-24T21:04:33.897Z,3.78
2022-08-24T21:07:00.476Z,4.15
2022-08-24T21:09:27.040Z,3.53
2022-08-24T21:11:53.518Z,3.53
2022-08-24T21:14:20.010Z,4.22
2022-08-24T21:16:46.986Z,3.88
2022-08-24T21:19:17.848Z,4.57
2022-08-24T21:21:48.140Z,3.75
2022-08-24T21:24:15.795Z,3.58
2022-08-24T21:26:42.474Z,3.72
2022-08-24T21:29:10.185Z,3.70
2022-08-24T21:31:37.389Z,3.35
2022-08-24T21:34:23.126Z,4.15
2022-08-24T21:36:52.654Z,3.65
2022-08-24T21:39:20.722Z,3.42
2022-08-24T21:41:47.585Z,4.00
2022-08-24T21:44:14.176Z,3.40
2022-08-24T21:46:41.176Z,3.88
2022-08-24T21:49:11.983Z,3.90
2022-08-24T21:51:40.177Z,4.18
2022-08-24T21:54:06.712Z,4.05
2022-08-24T21:56:34.350Z,3.85
2022-08-24T21:59:00.986Z,3.53
2022-08-24T22:01:28.791Z,3.38
2022-08-24T22:03:55.993Z,3.80
2022-08-24T22:06:22.480Z,3.65
2022-08-24T22:08:49.229Z,3.95
2022-08-24T22:11:18.913Z,4.00
2022-08-24T22:13:47.100Z,4.10
2022-08-24T22:16:13.820Z,3.25
2022-08-24T22:18:40.897Z,3.72
2022-08-24T22:21:11.049Z,3.70
2022-08-24T22:23:38.910Z,3.88
2022-08-24T22:26:05.786Z,3.80
2022-08-24T22:28:33.813Z,3.55
2022-08-24T22:31:00.525Z,4.65
2022-08-24T22:33:27.089Z,3.80
2022-08-24T22:35:53.814Z,3.80
2022-08-24T22:38:20.836Z,4.00
2022-08-24T22:40:54.695Z,3.97
2022-08-24T22:43:24.959Z,4.20
2022-08-24T22:45:51.781Z,3.75
2022-08-24T22:48:18.240Z,3.83
2022-08-24T22:50:45.860Z,3.83
2022-08-24T22:53:12.755Z,3.88
2022-08-24T22:55:39.183Z,3.60
2022-08-24T22:58:05.985Z,3.92
2022-08-24T23:00:32.597Z,3.83
2022-08-24T23:02:59.086Z,4.10
2022-08-24T23:05:25.616Z,4.00
2022-08-24T23:07:52.090Z,3.92
2022-08-24T23:10:18.578Z,4.50
2022-08-24T23:12:45.039Z,4.05
2022-08-24T23:15:11.504Z,4.28
2022-08-24T23:17:38.005Z,4.00
2022-08-24T23:20:06.630Z,4.28
2022-08-24T23:22:38.955Z,3.95
2022-08-24T23:25:08.861Z,4.15
2022-08-24T23:27:38.673Z,4.20
2022-08-24T23:30:12.250Z,4.18
2022-08-24T23:32:39.205Z,3.92
2022-08-24T23:35:06.232Z,4.00
2022-08-24T23:37:32.750Z,4.07
2022-08-24T23:39:59.342Z,4.50
2022-08-24T23:42:25.839Z,4.13
2022-08-24T23:44:52.788Z,4.22
2022-08-24T23:47:20.157Z,4.32
2022-08-24T23:49:46.634Z,4.28
2022-08-24T23:52:27.310Z,4.43
2022-08-24T23:55:20.159Z,4.15
2022-08-24T23:57:45.187Z,4.50
